Flight Briefing for CPX311

Departure Arrival
Chicago/Rockford International Airport (KRFD)
Click to view FAA NOTAMS
Lehigh Valley International Airport (KABE)
Click to view FAA NOTAMS
Departure Time Arrival Time
N/A N/A
Aircraft Distance
B767-300BDSF 623nm
Departure METAR Arrival METAR
KRFD 180454Z 35010KT 3SM -SN BR OVC050 M07/M09 A3000 RMK AO2 SLP170 P0000 T10671089 KABE 180518Z 12007KT 4SM -FZRA OVC009 01/M02 A2987 RMK AO2 UPB0456E0457FZRAB0457 PRESFR P0001 I1002 T00111017
Suggested Route
QUOTE JOT J60 PSB V30 ETX


View recent IFR Routes data
Notes



Charts and Procedures

Charts for KRFD
No chart available
Charts for KABE
No chart available

Ventusky Weather